createdAt,value
2018-03-25T10:20:22.881Z,20.70
2018-03-25T10:30:52.649Z,21.47
2018-03-25T10:35:53.622Z,20.83
2018-03-25T10:40:54.602Z,24.37
2018-03-25T10:45:55.613Z,21.20
2018-03-25T10:50:56.566Z,20.43
2018-03-25T10:55:57.548Z,20.53
2018-03-25T11:00:58.536Z,21.67
2018-03-25T11:05:59.877Z,21.00
2018-03-25T11:11:00.868Z,23.13
2018-03-25T11:16:01.817Z,20.93
2018-03-25T11:21:02.768Z,21.17
2018-03-25T11:26:03.992Z,21.20
2018-03-25T11:31:04.985Z,21.67
2018-03-25T11:47:11.028Z,21.57
2018-03-25T11:52:12.040Z,20.23
2018-03-25T11:57:13.032Z,22.70
2018-03-25T12:02:13.999Z,23.73
2018-03-25T12:07:15.002Z,22.10
2018-03-25T12:12:15.983Z,22.43
2018-03-25T12:22:51.430Z,22.47
2018-03-25T12:27:52.446Z,23.23
2018-03-25T12:32:53.397Z,23.10
2018-03-25T12:37:55.641Z,24.50
2018-03-25T12:42:56.639Z,23.00
2018-03-25T12:47:57.581Z,23.33
2018-03-25T12:52:58.525Z,22.73
2018-03-25T12:57:59.482Z,22.57
2018-03-25T13:03:00.483Z,21.20
2018-03-25T13:08:01.483Z,21.30
2018-03-25T13:13:02.467Z,22.70
2018-03-25T13:18:03.458Z,21.53
2018-03-25T13:23:04.457Z,22.53
2018-03-25T13:28:05.904Z,22.67
2018-03-25T13:33:06.844Z,23.20
2018-03-25T13:43:42.765Z,23.73
2018-03-25T13:48:43.749Z,22.60
2018-03-25T13:53:44.712Z,24.90
2018-03-25T13:58:45.684Z,22.43
2018-03-25T14:03:46.649Z,21.87
2018-03-25T14:08:47.933Z,22.23
2018-03-25T14:13:49.200Z,23.53
2018-03-25T14:18:50.191Z,21.87
2018-03-25T14:23:51.161Z,22.67
2018-03-25T14:28:52.198Z,23.03
2018-03-25T14:33:53.159Z,23.90
2018-03-25T14:38:54.118Z,25.47
2018-03-25T14:43:55.081Z,23.90
2018-03-25T14:48:56.044Z,22.80
2018-03-25T14:53:57.020Z,23.07
2018-03-25T14:58:57.968Z,23.10
2018-03-25T15:03:58.912Z,23.90
2018-03-25T15:09:00.227Z,23.37
2018-03-25T15:14:01.518Z,21.60
2018-03-25T15:19:02.512Z,21.97
2018-03-25T15:24:03.530Z,20.90
2018-03-25T15:29:04.521Z,22.97
2018-03-25T15:34:05.958Z,23.23
2018-03-25T15:39:06.912Z,24.07
2018-03-25T15:44:07.923Z,23.93
2018-03-25T15:49:08.925Z,23.40
2018-03-25T15:54:09.882Z,23.37
2018-03-25T15:59:10.883Z,23.20
2018-03-25T16:04:11.888Z,22.73
2018-03-25T16:09:12.872Z,24.30
2018-03-25T16:14:13.834Z,24.10
2018-03-25T16:19:15.077Z,25.17
2018-03-25T16:24:16.038Z,24.80
2018-03-25T16:29:17.085Z,24.73
2018-03-25T16:34:18.113Z,24.03
2018-03-25T16:39:19.135Z,25.97
2018-03-25T16:44:20.125Z,25.80
2018-03-25T16:49:21.103Z,26.87
2018-03-25T16:54:22.078Z,27.17
2018-03-25T16:59:23.093Z,27.23
2018-03-25T17:04:24.071Z,25.47
2018-03-25T17:09:25.062Z,27.07
2018-03-25T17:14:26.068Z,28.03
2018-03-25T17:19:27.033Z,29.77
2018-03-25T17:24:27.984Z,27.20
2018-03-25T17:29:29.022Z,29.03
2018-03-25T17:34:30.003Z,28.07
2018-03-25T17:39:30.980Z,30.90
2018-03-25T17:44:32.011Z,30.30
2018-03-25T18:00:33.938Z,36.00
2018-03-25T18:05:34.909Z,37.00
2018-03-25T18:10:35.914Z,32.10
2018-03-25T18:15:36.899Z,37.37
2018-03-25T18:20:37.874Z,36.77
2018-03-25T18:25:38.813Z,38.80
2018-03-25T18:30:39.835Z,37.57
2018-03-25T18:35:40.811Z,40.67
2018-03-25T18:40:41.785Z,38.90
2018-03-25T18:45:42.757Z,40.80
2018-03-25T18:50:43.777Z,41.20
2018-03-25T18:55:44.809Z,42.00
2018-03-25T19:00:45.842Z,42.47
2018-03-25T19:05:46.865Z,42.10
2018-03-25T19:10:47.869Z,44.30
2018-03-25T19:15:48.924Z,45.10
2018-03-25T19:20:50.032Z,44.70
2018-03-25T19:25:51.126Z,45.47
2018-03-25T19:30:53.092Z,45.97
2018-03-25T19:35:54.089Z,47.23
2018-03-25T19:40:55.080Z,43.80
2018-03-25T19:45:56.058Z,46.97
2018-03-25T19:50:57.045Z,45.60
2018-03-25T19:55:58.043Z,46.37
2018-03-25T20:00:59.103Z,47.20
2018-03-25T20:06:00.108Z,45.90
2018-03-25T20:11:01.137Z,46.37
2018-03-25T20:16:02.096Z,46.20
2018-03-25T20:21:03.113Z,41.40
2018-03-25T20:26:04.104Z,41.40
2018-03-25T20:31:05.073Z,40.43
2018-03-25T20:36:06.449Z,41.17
2018-03-25T22:04:49.116Z,47.97
2018-03-25T22:09:50.100Z,49.93
2018-03-25T22:14:51.064Z,46.80
2018-03-25T22:19:52.029Z,47.50
2018-03-25T22:24:52.961Z,52.13
2018-03-25T22:29:54.377Z,50.60
2018-03-25T22:34:55.304Z,51.20
2018-03-25T22:39:57.228Z,52.83
2018-03-25T22:44:58.184Z,52.70
2018-03-25T22:49:59.232Z,54.77
2018-03-25T22:55:00.477Z,52.77
2018-03-25T23:00:01.765Z,53.17
2018-03-25T23:05:03.248Z,51.17
2018-03-25T23:10:04.264Z,53.37
2018-03-25T23:15:05.256Z,51.80
2018-03-25T23:20:06.432Z,45.93
2018-03-25T23:25:07.691Z,47.73
2018-03-25T23:30:08.939Z,45.23
2018-03-25T23:35:10.206Z,43.60
2018-03-25T23:40:11.135Z,46.07
2018-03-25T23:45:12.078Z,44.07
2018-03-25T23:50:13.026Z,43.87
2018-03-25T23:55:13.949Z,41.30
